Time;durP1;ratioP1;P1;durP2;ratioP2;P2;SDS_P1;SDS_P2;PMS_P1;PMS_P2;Temp;Humidity;BMP_temperature;BMP_pressure;BME280_temperature;BME280_humidity;BME280_pressure;Samples;Min_cycle;Max_cycle;Signal;HPM_P1;HPM_P2
2024/01/17 01:44:06;825986.00;2.75;1426.48;0.00;0.00;0.62;;;;;0.70;1.00;;;;;;2278246;61;949;-91
2024/01/17 01:56:40;682523.00;2.28;1176.94;9162.00;0.03;16.50;;;;;0.90;1.00;;;;;;2274118;61;974;-91
2024/01/17 02:35:26;945977.00;3.15;1637.02;0.00;0.00;0.62;;;;;1.80;1.00;;;;;;2274288;61;1950;-91
2024/01/17 03:23:30;1116795.00;3.72;1940.48;91441.00;0.30;158.80;;;;;2.20;1.00;;;;;;2503845;40;3538;31
2024/01/17 03:36:14;986763.00;3.29;1709.04;85569.00;0.29;148.66;;;;;1.90;1.00;;;;;;2266773;61;1867;-89
2024/01/17 04:47:08;778813.00;2.60;1344.20;0.00;0.00;0.62;;;;;2.30;1.00;;;;;;2270108;61;1184;-92
2024/01/17 05:28:08;1029981.00;3.43;1785.64;19411.00;0.06;34.25;;;;;3.20;1.00;;;;;;2274273;61;1072;-92
2024/01/17 05:56:45;918043.00;3.06;1587.83;49175.00;0.16;85.76;;;;;3.70;1.00;;;;;;2274478;61;2114;-89
2024/01/17 07:31:48;924326.00;3.08;1598.89;92697.00;0.31;160.96;;;;;7.70;1.00;;;;;;2504508;55;3550;31
2024/01/17 08:09:26;1083695.00;3.61;1881.29;48831.00;0.16;85.16;;;;;6.70;1.00;;;;;;2274192;61;1432;-88
2024/01/17 08:11:55;257077.00;0.86;444.12;0.00;0.00;0.62;;;;;6.70;1.00;;;;;;2272444;61;1308;-87
2024/01/17 08:14:22;474777.00;1.58;818.41;0.00;0.00;0.62;;;;;7.00;1.00;;;;;;2272397;61;1758;-89
2024/01/17 08:16:51;499914.00;1.67;861.68;0.00;0.00;0.62;;;;;7.30;1.00;;;;;;2272294;61;2010;-87
2024/01/17 08:19:18;766660.00;2.56;1323.04;23832.00;0.08;41.91;;;;;7.40;1.00;;;;;;2272368;61;1023;-89
2024/01/17 08:21:46;304595.00;1.02;525.82;15080.00;0.05;26.75;;;;;7.20;1.00;;;;;;2272429;61;1368;-87
2024/01/17 08:24:14;202360.00;0.67;349.99;0.00;0.00;0.62;;;;;7.60;1.00;;;;;;2272493;61;1098;-87
2024/01/17 08:26:42;458379.00;1.53;790.20;0.00;0.00;0.62;;;;;7.80;1.00;;;;;;2272461;61;992;-88
2024/01/17 08:29:09;242758.00;0.81;419.50;0.00;0.00;0.62;;;;;7.90;1.00;;;;;;2272388;61;1722;-87
2024/01/17 08:31:36;295436.00;0.98;510.07;460.00;0.00;1.42;;;;;8.00;1.00;;;;;;2272468;61;1231;-87
2024/01/17 08:34:03;298771.00;1.00;515.81;0.00;0.00;0.62;;;;;8.00;1.00;;;;;;2272368;61;1484;-88
2024/01/17 08:36:30;383890.00;1.28;662.11;0.00;0.00;0.62;;;;;8.10;1.00;;;;;;2268834;61;2014;-88
2024/01/17 08:38:58;292502.00;0.98;505.03;0.00;0.00;0.62;;;;;8.10;1.00;;;;;;2272393;61;1582;-88
2024/01/17 08:41:25;453205.00;1.51;781.30;0.00;0.00;0.62;;;;;8.20;1.00;;;;;;2272378;61;1357;-87
2024/01/17 08:43:53;390199.00;1.30;672.96;0.00;0.00;0.62;;;;;8.40;1.00;;;;;;2272360;61;1715;-88
2024/01/17 08:46:20;640831.00;2.14;1104.78;0.00;0.00;0.62;;;;;8.40;1.00;;;;;;2272446;61;1059;-86
2024/01/17 08:48:47;234625.00;0.78;405.51;55998.00;0.19;97.56;;;;;8.30;1.00;;;;;;2272434;61;1123;-87
2024/01/17 08:51:14;418780.00;1.40;722.09;0.00;0.00;0.62;;;;;8.30;1.00;;;;;;2272198;61;1279;-88
2024/01/17 08:53:41;482562.00;1.61;831.81;10085.00;0.03;18.10;;;;;8.20;1.00;;;;;;2272379;61;1082;-90
2024/01/17 08:56:09;678698.00;2.26;1170.32;31583.00;0.11;55.32;;;;;8.10;1.00;;;;;;2272322;61;1994;-86
2024/01/17 08:58:36;479807.00;1.60;827.07;0.00;0.00;0.62;;;;;8.10;1.00;;;;;;2272292;61;1723;-86
2024/01/17 09:01:04;424665.00;1.42;732.21;7782.00;0.03;14.11;;;;;8.20;1.00;;;;;;2272053;61;1371;-87
2024/01/17 09:03:33;543181.00;1.81;936.21;0.00;0.00;0.62;;;;;8.00;1.00;;;;;;2272135;61;1758;-86
2024/01/17 09:05:59;400444.00;1.33;690.57;8651.00;0.03;15.61;;;;;8.10;1.00;;;;;;2272216;61;1296;-86
2024/01/17 09:08:26;377744.00;1.26;651.55;0.00;0.00;0.62;;;;;7.90;1.00;;;;;;2272174;61;1053;-88
2024/01/17 09:10:54;486508.00;1.62;838.60;39285.00;0.13;68.65;;;;;7.80;1.00;;;;;;2272271;61;1395;-88
2024/01/17 09:13:21;407083.00;1.36;701.98;0.00;0.00;0.62;;;;;7.90;1.00;;;;;;2272257;61;1075;-87
2024/01/17 09:15:48;511684.00;1.71;881.94;0.00;0.00;0.62;;;;;7.90;1.00;;;;;;2272176;61;1916;-87
2024/01/17 09:18:17;495584.00;1.65;854.22;55539.00;0.19;96.76;;;;;7.90;1.00;;;;;;2272220;61;1070;-87
2024/01/17 09:20:45;507955.00;1.69;875.52;14840.00;0.05;26.33;;;;;8.30;1.00;;;;;;2272130;61;1568;-88
2024/01/17 09:23:13;428029.00;1.43;738.00;0.00;0.00;0.62;;;;;8.20;1.00;;;;;;2272165;61;1413;-87
2024/01/17 09:25:40;486611.00;1.62;838.78;0.00;0.00;0.62;;;;;8.00;1.00;;;;;;2272216;61;1140;-87
2024/01/17 09:28:07;497531.00;1.66;857.57;0.00;0.00;0.62;;;;;7.90;1.00;;;;;;2272173;61;1555;-87
2024/01/17 09:30:34;333730.00;1.11;575.90;16180.00;0.05;28.65;;;;;7.90;1.00;;;;;;2272111;61;1511;-87
2024/01/17 09:33:01;304132.00;1.01;525.02;0.00;0.00;0.62;;;;;7.90;1.00;;;;;;2272269;61;924;-87
2024/01/17 09:35:32;340238.00;1.13;587.08;0.00;0.00;0.62;;;;;8.20;1.00;;;;;;2272125;61;2005;-88
2024/01/17 09:37:59;219988.00;0.73;380.32;0.00;0.00;0.62;;;;;8.20;1.00;;;;;;2272129;61;1001;-87
2024/01/17 09:40:26;516886.00;1.72;890.90;0.00;0.00;0.62;;;;;8.30;1.00;;;;;;2272057;61;1232;-85
2024/01/17 09:42:54;249834.00;0.83;431.67;0.00;0.00;0.62;;;;;8.10;1.00;;;;;;2272064;61;2086;-86
2024/01/17 09:45:23;394138.00;1.31;679.73;30406.00;0.10;53.29;;;;;8.40;1.00;;;;;;2272111;61;959;-87
2024/01/17 09:47:55;422346.00;1.41;728.22;26972.00;0.09;47.34;;;;;8.30;1.00;;;;;;2272136;61;1024;-87
2024/01/17 09:50:22;452361.00;1.51;779.84;0.00;0.00;0.62;;;;;8.40;1.00;;;;;;2272052;61;1353;-88
2024/01/17 09:52:54;360782.00;1.20;622.39;32631.00;0.11;57.14;;;;;8.20;1.00;;;;;;2272165;61;1026;-86
2024/01/17 09:55:23;164455.00;0.55;284.71;0.00;0.00;0.62;;;;;8.20;1.00;;;;;;2272095;61;1928;-87
2024/01/17 09:57:56;213774.00;0.71;369.63;22555.00;0.08;39.69;;;;;8.30;1.00;;;;;;2272086;61;1039;-87
2024/01/17 10:00:23;100336.00;0.33;174.15;0.00;0.00;0.62;;;;;8.40;1.00;;;;;;2272059;61;1288;-88
2024/01/17 10:02:51;23144.00;0.08;40.71;0.00;0.00;0.62;;;;;8.50;1.00;;;;;;2271935;61;1072;-88
2024/01/17 10:05:21;32630.00;0.11;57.14;0.00;0.00;0.62;;;;;8.60;1.00;;;;;;2271905;61;1099;-88
2024/01/17 10:07:52;316379.00;1.05;546.07;0.00;0.00;0.62;;;;;8.60;1.00;;;;;;2271949;61;1683;-87
2024/01/17 10:10:21;100632.00;0.34;174.66;0.00;0.00;0.62;;;;;8.60;1.00;;;;;;2271975;61;1492;-88
2024/01/17 10:12:48;145260.00;0.48;251.64;0.00;0.00;0.62;;;;;8.70;1.00;;;;;;2272010;61;1568;-86
2024/01/17 10:15:16;42702.00;0.14;74.56;0.00;0.00;0.62;;;;;8.70;1.00;;;;;;2271890;61;2002;-88
2024/01/17 10:17:43;105285.00;0.35;182.69;0.00;0.00;0.62;;;;;8.80;1.00;;;;;;2271821;61;1144;-87
2024/01/17 10:20:11;68472.00;0.23;119.12;0.00;0.00;0.62;;;;;8.80;1.00;;;;;;2271692;61;1660;-88
2024/01/17 10:22:41;177090.00;0.59;306.48;0.00;0.00;0.62;;;;;8.70;1.00;;;;;;2271899;61;1017;-88
2024/01/17 10:27:39;313228.00;1.04;540.66;0.00;0.00;0.62;;;;;8.60;1.00;;;;;;1189332;56;3566;-88
2024/01/17 10:30:10;167396.00;0.56;289.78;0.00;0.00;0.62;;;;;8.40;1.00;;;;;;2267858;61;1349;-88
2024/01/17 10:32:38;49821.00;0.17;86.88;0.00;0.00;0.62;;;;;8.10;1.00;;;;;;2267724;61;1052;-88
2024/01/17 10:35:05;23336.00;0.08;41.05;0.00;0.00;0.62;;;;;8.10;1.00;;;;;;2267761;61;1649;-88
2024/01/17 10:37:33;10083.00;0.03;18.09;0.00;0.00;0.62;;;;;8.50;1.00;;;;;;2267823;61;2009;-87
2024/01/17 10:42:28;54986.00;0.18;95.81;0.00;0.00;0.62;;;;;8.70;1.00;;;;;;2269619;61;1397;-87
2024/01/17 10:44:59;122216.00;0.41;211.90;0.00;0.00;0.62;;;;;8.90;1.00;;;;;;2267672;61;1015;-86
2024/01/17 10:47:26;366970.00;1.22;633.03;0.00;0.00;0.62;;;;;9.00;1.00;;;;;;2267895;61;1530;-87
2024/01/17 10:52:26;333775.00;1.11;575.97;0.00;0.00;0.62;;;;;9.00;1.00;;;;;;2269777;61;1388;-87
2024/01/17 10:54:59;219720.00;0.73;379.86;296.00;0.00;1.13;;;;;8.70;1.00;;;;;;2267861;61;1157;-87
2024/01/17 10:57:29;70757.00;0.24;123.07;0.00;0.00;0.62;;;;;8.60;1.00;;;;;;2267885;61;1931;-90
2024/01/17 11:00:03;144191.00;0.48;249.80;0.00;0.00;0.62;;;;;8.50;1.00;;;;;;2267769;61;1258;-88
2024/01/17 11:02:33;201992.00;0.67;349.35;0.00;0.00;0.62;;;;;8.50;1.00;;;;;;2267853;61;1431;-86
2024/01/17 11:05:06;116117.00;0.39;201.38;0.00;0.00;0.62;;;;;8.80;1.00;;;;;;2267920;61;1021;-88
2024/01/17 11:07:34;172543.00;0.58;298.65;0.00;0.00;0.62;;;;;8.70;1.00;;;;;;2267850;61;1717;-88
2024/01/17 11:10:04;39013.00;0.13;68.18;0.00;0.00;0.62;;;;;8.70;1.00;;;;;;2267857;61;1284;-87
2024/01/17 11:12:33;48482.00;0.16;84.56;0.00;0.00;0.62;;;;;9.20;1.00;;;;;;2267871;61;1192;-87
2024/01/17 11:15:03;26296.00;0.09;46.17;0.00;0.00;0.62;;;;;9.50;1.00;;;;;;2268092;61;1055;-87
2024/01/17 11:17:35;68393.00;0.23;118.98;0.00;0.00;0.62;;;;;9.80;1.00;;;;;;2268575;61;2019;-86
2024/01/17 11:20:06;144808.00;0.48;250.86;0.00;0.00;0.62;;;;;9.50;1.00;;;;;;2268487;61;1382;-87
2024/01/17 11:22:35;168884.00;0.56;292.34;0.00;0.00;0.62;;;;;9.30;1.00;;;;;;2268569;61;989;-87
2024/01/17 11:25:15;71303.00;0.24;124.01;0.00;0.00;0.62;;;;;9.50;1.00;;;;;;2268573;61;1613;-86
2024/01/17 11:27:48;165792.00;0.55;287.02;0.00;0.00;0.62;;;;;9.60;1.00;;;;;;2268621;61;927;-87
2024/01/17 11:30:32;128417.00;0.43;222.60;0.00;0.00;0.62;;;;;9.10;1.00;;;;;;2268565;61;1519;-86
2024/01/17 11:33:07;116971.00;0.39;202.86;0.00;0.00;0.62;;;;;8.60;1.00;;;;;;2268652;61;1148;-86
2024/01/17 11:35:41;128771.00;0.43;223.21;0.00;0.00;0.62;;;;;8.90;1.00;;;;;;2268609;61;1919;-86
2024/01/17 11:38:12;17490.00;0.06;30.92;34186.00;0.11;59.83;;;;;9.00;1.00;;;;;;2268612;61;1105;-87
2024/01/17 11:40:41;121066240.00;403.55;71884304.00;0.00;0.00;0.62;;;;;8.90;1.00;;;;;;2268614;61;1364;-87
2024/01/17 11:43:08;56959.00;0.19;99.22;0.00;0.00;0.62;;;;;9.00;1.00;;;;;;2268544;61;1156;-86
2024/01/17 11:45:38;70308.00;0.23;122.29;0.00;0.00;0.62;;;;;9.30;1.00;;;;;;2268488;61;1101;-87
2024/01/17 11:48:18;53230.00;0.18;92.77;0.00;0.00;0.62;;;;;9.60;1.00;;;;;;2268380;61;1742;-86
2024/01/17 11:50:59;99909.00;0.33;173.41;0.00;0.00;0.62;;;;;9.60;1.00;;;;;;2268380;61;1325;-87
2024/01/17 11:53:28;79308.00;0.26;137.84;0.00;0.00;0.62;;;;;9.70;1.00;;;;;;2268460;61;1962;-86
2024/01/17 11:55:56;152488.00;0.51;264.10;0.00;0.00;0.62;;;;;9.90;1.00;;;;;;2268498;61;1925;-85
2024/01/17 11:58:38;171418.00;0.57;296.71;0.00;0.00;0.62;;;;;9.60;1.00;;;;;;2268502;61;1086;-85
2024/01/17 12:01:07;278637.00;0.93;481.19;30346.00;0.10;53.18;;;;;9.60;1.00;;;;;;2268456;61;1385;-90
2024/01/17 12:03:34;42662.00;0.14;74.49;0.00;0.00;0.62;;;;;9.90;1.00;;;;;;2268375;61;1613;-86
2024/01/17 12:06:02;60163.00;0.20;104.76;0.00;0.00;0.62;;;;;9.90;1.00;;;;;;2268471;61;940;-87
2024/01/17 12:08:30;176827.00;0.59;306.03;0.00;0.00;0.62;;;;;9.30;1.00;;;;;;2268404;61;1409;-86
2024/01/17 12:10:57;261784.00;0.87;452.22;0.00;0.00;0.62;;;;;9.30;1.00;;;;;;2268122;61;1676;-87
2024/01/17 12:13:25;140160.00;0.47;242.85;0.00;0.00;0.62;;;;;9.20;1.00;;;;;;2268284;61;1666;-87
2024/01/17 12:15:57;72952.00;0.24;126.86;0.00;0.00;0.62;;;;;9.30;1.00;;;;;;2268290;61;2383;-87
2024/01/17 12:18:27;144938.00;0.48;251.08;0.00;0.00;0.62;;;;;9.70;1.00;;;;;;2268408;61;1061;-86
2024/01/17 12:23:25;100142.00;0.33;173.82;0.00;0.00;0.62;;;;;8.90;1.00;;;;;;2269924;61;1309;-88
2024/01/17 12:25:55;13985.00;0.05;24.85;0.00;0.00;0.62;;;;;8.80;1.00;;;;;;2268295;61;984;-88
2024/01/17 12:28:24;34005.00;0.11;59.51;0.00;0.00;0.62;;;;;8.40;1.00;;;;;;2268406;61;1032;-87
2024/01/17 12:31:02;177057.00;0.59;306.42;0.00;0.00;0.62;;;;;8.30;1.00;;;;;;2268317;61;1428;-87
2024/01/17 12:33:33;0.00;0.00;0.62;0.00;0.00;0.62;;;;;8.60;1.00;;;;;;2268389;61;1027;-86
2024/01/17 12:36:01;235429.00;0.78;406.89;18129.00;0.06;32.03;;;;;8.80;1.00;;;;;;2268389;61;2000;-88
2024/01/17 12:38:29;187060.00;0.62;323.65;0.00;0.00;0.62;;;;;8.90;1.00;;;;;;2268326;61;1059;-87
2024/01/17 12:40:57;27930.00;0.09;49.00;0.00;0.00;0.62;;;;;9.00;1.00;;;;;;2268316;61;1382;-88
2024/01/17 12:43:25;85334.00;0.28;148.25;0.00;0.00;0.62;;;;;9.20;1.00;;;;;;2268417;61;1181;-87
2024/01/17 12:45:54;14115.00;0.05;25.08;0.00;0.00;0.62;;;;;9.30;1.00;;;;;;2268356;61;1131;-88
2024/01/17 12:48:21;91374.00;0.30;158.68;0.00;0.00;0.62;;;;;8.80;1.00;;;;;;2268236;61;1055;-87
2024/01/17 12:50:54;20290.00;0.07;35.77;0.00;0.00;0.62;;;;;9.10;1.00;;;;;;2268251;61;1273;-87
2024/01/17 12:53:24;111062.00;0.37;192.66;0.00;0.00;0.62;;;;;8.80;1.00;;;;;;2268278;61;2204;-88
2024/01/17 12:55:52;74595.00;0.25;129.70;0.00;0.00;0.62;;;;;9.40;1.00;;;;;;2268196;61;1130;-85
2024/01/17 12:58:19;54224.00;0.18;94.49;0.00;0.00;0.62;;;;;9.50;1.00;;;;;;2268255;61;1940;-86
2024/01/17 13:00:47;176050.00;0.59;304.69;0.00;0.00;0.62;;;;;9.70;1.00;;;;;;2268240;61;1427;-88
2024/01/17 13:08:24;109541.00;0.37;190.04;0.00;0.00;0.62;;;;;9.50;1.00;;;;;;2287123;56;1768;-88
2024/01/17 13:11:03;621123.00;2.07;1070.71;124681.00;0.42;216.16;;;;;9.90;1.00;;;;;;2295864;40;3578;-88
2024/01/17 13:16:00;261732.00;0.87;452.13;97458.00;0.32;169.18;;;;;10.50;1.00;;;;;;2274039;61;1402;-87
2024/01/17 13:18:28;225571.00;0.75;389.93;92588.00;0.31;160.78;;;;;10.70;1.00;;;;;;2272324;61;1991;-87
2024/01/17 13:21:09;379235.00;1.26;654.11;108407.00;0.36;188.08;;;;;10.80;1.00;;;;;;2272202;61;1435;-90
2024/01/17 13:23:38;621685.00;2.07;1071.68;91544.00;0.31;158.97;;;;;11.20;1.00;;;;;;2272296;61;1008;-90
2024/01/17 13:26:05;119780896.00;399.27;69616928.00;86906.00;0.29;150.96;;;;;11.10;1.00;;;;;;2272278;61;1594;-87
2024/01/17 13:28:32;616153.00;2.05;1062.12;113774.00;0.38;197.34;;;;;11.20;1.00;;;;;;2272345;61;1147;-87
2024/01/17 13:30:59;424814.00;1.42;732.47;92290.00;0.31;160.26;;;;;10.90;1.00;;;;;;2272316;61;1272;-88
2024/01/17 13:33:26;639204.00;2.13;1101.96;96135.00;0.32;166.90;;;;;11.00;1.00;;;;;;2272347;61;1621;-89
2024/01/17 13:35:54;411866.00;1.37;710.21;89198.00;0.30;154.92;;;;;11.20;1.00;;;;;;2272274;61;1585;-88
2024/01/17 13:38:25;366297.00;1.22;631.87;91101.00;0.30;158.21;;;;;11.40;1.00;;;;;;2272221;61;1922;-87
2024/01/17 13:40:53;507066.00;1.69;873.99;82043.00;0.27;142.57;;;;;11.20;1.00;;;;;;2272307;61;1451;-87
2024/01/17 13:43:20;483625.00;1.61;833.64;97492.00;0.32;169.24;;;;;11.30;1.00;;;;;;2272240;61;1037;-87
2024/01/17 13:45:47;709191.00;2.36;1223.18;229431.00;0.76;396.57;;;;;11.50;1.00;;;;;;2272237;61;997;-90
2024/01/17 13:48:14;540674.00;1.80;931.88;102565.00;0.34;178.00;;;;;11.50;1.00;;;;;;2272196;61;1126;-87
2024/01/17 13:50:45;697289.00;2.32;1202.54;135336.00;0.45;234.53;;;;;11.30;1.00;;;;;;2272177;61;1294;-87
2024/01/17 13:53:28;396176.00;1.32;683.23;87864.00;0.29;152.62;;;;;11.30;1.00;;;;;;2272215;61;1323;-88
2024/01/17 13:58:29;895271.00;2.98;1547.82;98146.00;0.33;170.37;;;;;11.20;1.00;;;;;;2273907;61;1902;-88
2024/01/17 14:00:57;709027.00;2.36;1222.90;0.00;0.00;0.62;;;;;11.20;1.00;;;;;;2272096;61;1562;-85
2024/01/17 14:05:57;1144257.00;3.81;1989.75;67434.00;0.22;117.33;;;;;11.40;1.00;;;;;;2273819;61;1394;-86
2024/01/17 14:08:24;643009.00;2.14;1108.54;0.00;0.00;0.62;;;;;11.40;1.00;;;;;;2272239;61;1115;-86
2024/01/17 14:13:22;708826.00;2.36;1222.55;0.00;0.00;0.62;;;;;11.00;1.00;;;;;;2273839;61;1431;-86
2024/01/17 14:15:51;528014.00;1.76;910.07;0.00;0.00;0.62;;;;;11.20;1.00;;;;;;2272102;61;2103;-87
2024/01/17 14:18:19;607361.00;2.02;1046.93;90242.00;0.30;156.73;;;;;11.50;1.00;;;;;;2272085;61;2007;-89
2024/01/17 14:23:18;542351.00;1.81;934.77;0.00;0.00;0.62;;;;;11.60;1.00;;;;;;2269688;61;1357;-87
2024/01/17 14:28:15;1496163.00;4.99;2635.90;7475.00;0.02;13.57;;;;;11.40;1.00;;;;;;2269564;61;1658;-87
2024/01/17 14:30:42;441609.00;1.47;761.35;0.00;0.00;0.62;;;;;11.50;1.00;;;;;;2305917;55;3764;-88
2024/01/17 14:33:10;411477.00;1.37;709.54;0.00;0.00;0.62;;;;;11.50;1.00;;;;;;2276110;61;1028;-89
2024/01/17 14:35:49;810649.00;2.70;1399.70;20739.00;0.07;36.55;;;;;11.60;1.00;;;;;;2276180;61;1024;-88
2024/01/17 14:38:16;346716.00;1.16;598.22;0.00;0.00;0.62;;;;;11.80;1.00;;;;;;2276027;61;1988;-87
2024/01/17 14:40:43;341779.00;1.14;589.73;0.00;0.00;0.62;;;;;11.60;1.00;;;;;;2272502;61;1456;-87
2024/01/17 14:43:10;541898.00;1.81;933.99;0.00;0.00;0.62;;;;;11.70;1.00;;;;;;2276038;61;1015;-88
2024/01/17 14:45:38;476808.00;1.59;821.90;0.00;0.00;0.62;;;;;11.70;1.00;;;;;;2275982;61;1042;-87
2024/01/17 14:48:07;320537.00;1.07;553.22;0.00;0.00;0.62;;;;;11.80;1.00;;;;;;2276085;61;2062;-86
2024/01/17 14:53:03;445665.00;1.49;768.33;0.00;0.00;0.62;;;;;11.50;1.00;;;;;;2278788;61;1395;-88
2024/01/17 14:55:31;365818.00;1.22;631.05;0.00;0.00;0.62;;;;;11.40;1.00;;;;;;2276880;61;1122;-88
2024/01/17 14:57:58;474274.00;1.58;817.54;0.00;0.00;0.62;;;;;11.10;1.00;;;;;;2276789;61;1998;-86
2024/01/17 15:00:27;793734.00;2.65;1370.20;41365.00;0.14;72.25;;;;;10.70;1.00;;;;;;2276873;61;1592;-87
2024/01/17 15:02:54;308557.00;1.03;532.63;0.00;0.00;0.62;;;;;10.20;1.00;;;;;;2276803;61;1094;-88
2024/01/17 15:05:21;600089.00;2.00;1034.37;0.00;0.00;0.62;;;;;10.10;1.00;;;;;;2276773;61;1156;-87
2024/01/17 15:07:48;607227.00;2.02;1046.70;0.00;0.00;0.62;;;;;10.50;1.00;;;;;;2276760;61;1776;-88
2024/01/17 15:10:17;673213.00;2.24;1160.82;0.00;0.00;0.62;;;;;10.70;1.00;;;;;;2276651;61;1382;-87
2024/01/17 15:15:16;638284.00;2.13;1100.37;0.00;0.00;0.62;;;;;10.90;1.00;;;;;;2274873;61;1324;-88
2024/01/17 15:17:43;381983.00;1.27;658.83;0.00;0.00;0.62;;;;;11.10;1.00;;;;;;2273321;61;1996;-86
2024/01/17 15:20:11;312682.00;1.04;539.72;0.00;0.00;0.62;;;;;11.40;1.00;;;;;;2272714;61;1336;-89
2024/01/17 15:22:38;245313.00;0.82;423.89;0.00;0.00;0.62;;;;;11.60;1.00;;;;;;2272695;61;1055;-88
2024/01/17 15:25:05;519189.00;1.73;894.87;15824.00;0.05;28.04;;;;;11.90;1.00;;;;;;2272741;61;1121;-86
2024/01/17 15:27:35;303439.00;1.01;523.83;0.00;0.00;0.62;;;;;11.10;1.00;;;;;;2272673;61;1111;-86
2024/01/17 15:32:34;429719.00;1.43;740.90;0.00;0.00;0.62;;;;;10.80;1.00;;;;;;2270099;61;1414;-88
2024/01/17 15:35:01;68045.00;0.23;118.38;0.00;0.00;0.62;;;;;11.30;1.00;;;;;;2268675;61;1543;-88
2024/01/17 15:37:28;175452.00;0.58;303.66;0.00;0.00;0.62;;;;;11.60;1.00;;;;;;2268582;61;1919;-88
2024/01/17 15:52:33;229050.00;0.76;395.91;0.00;0.00;0.62;;;;;11.20;1.00;;;;;;2297870;40;3643;-87
2024/01/17 15:55:03;13848.00;0.05;24.62;0.00;0.00;0.62;;;;;11.30;1.00;;;;;;2268506;61;1437;-87
2024/01/17 15:57:30;105111.00;0.35;182.39;0.00;0.00;0.62;;;;;11.10;1.00;;;;;;2268507;61;1968;-87
2024/01/17 15:59:57;55106.00;0.18;96.02;0.00;0.00;0.62;;;;;11.00;1.00;;;;;;2268583;61;1289;-87
2024/01/17 16:02:25;206618.00;0.69;357.31;0.00;0.00;0.62;;;;;11.00;1.00;;;;;;2268383;61;1057;-88
2024/01/17 16:07:19;173575.00;0.58;300.42;0.00;0.00;0.62;;;;;10.80;1.00;;;;;;2274164;61;1416;-87
2024/01/17 16:09:48;90439.00;0.30;157.07;0.00;0.00;0.62;;;;;10.50;1.00;;;;;;2272492;61;1051;-88
2024/01/17 16:12:15;74485.00;0.25;129.51;0.00;0.00;0.62;;;;;10.00;1.00;;;;;;2272380;61;1076;-86
2024/01/17 16:14:42;17302.00;0.06;30.60;0.00;0.00;0.62;;;;;9.80;3.90;;;;;;2272474;61;1649;-87
2024/01/17 16:19:40;271063.00;0.90;468.17;0.00;0.00;0.62;;;;;10.10;1.40;;;;;;2278595;61;1189;-88
2024/01/17 16:22:08;167381.00;0.56;289.76;0.00;0.00;0.62;;;;;10.30;1.00;;;;;;2276456;61;1215;-87
2024/01/17 16:24:35;253155.00;0.84;437.38;26648.00;0.09;46.78;;;;;10.60;1.00;;;;;;2276569;61;1078;-87
2024/01/17 16:32:06;359527.00;1.20;620.24;14214.00;0.05;25.25;;;;;10.60;1.00;;;;;;2282407;61;1409;-90
2024/01/17 16:34:33;49533.00;0.17;86.38;0.00;0.00;0.62;;;;;10.60;1.00;;;;;;2280513;61;1184;-88
2024/01/17 16:37:02;0.00;0.00;0.62;0.00;0.00;0.62;;;;;10.70;1.00;;;;;;2280555;61;1998;-88
2024/01/17 16:39:28;139984.00;0.47;242.54;0.00;0.00;0.62;;;;;10.50;1.00;;;;;;2280588;61;930;-89
2024/01/17 16:41:55;249813.00;0.83;431.63;0.00;0.00;0.62;;;;;10.40;1.00;;;;;;2276989;61;1962;-88
2024/01/17 16:44:22;65856.00;0.22;114.60;0.00;0.00;0.62;;;;;10.70;1.00;;;;;;2276521;61;1022;-87
2024/01/17 16:46:49;127825.00;0.43;221.58;32439.00;0.11;56.80;;;;;10.70;1.00;;;;;;2276337;61;1719;-88
2024/01/17 16:49:17;77059.00;0.26;133.96;0.00;0.00;0.62;;;;;10.70;1.00;;;;;;2276554;61;960;-88
2024/01/17 16:54:17;348875.00;1.16;601.93;0.00;0.00;0.62;;;;;10.90;1.00;;;;;;2281947;61;1541;-86
2024/01/17 16:56:43;238252.00;0.79;411.74;0.00;0.00;0.62;;;;;11.00;1.00;;;;;;2280353;61;1034;-87
2024/01/17 17:06:40;13820.00;0.05;24.57;0.00;0.00;0.62;;;;;11.50;1.00;;;;;;2282239;61;1431;-88
2024/01/17 17:16:38;187469.00;0.62;324.35;0.00;0.00;0.62;;;;;11.20;1.00;;;;;;2282451;61;1931;-87
2024/01/17 17:19:08;130896.00;0.44;226.87;0.00;0.00;0.62;;;;;11.20;1.00;;;;;;2280341;61;1954;-88
2024/01/17 17:31:44;107569.00;0.36;186.64;0.00;0.00;0.62;;;;;11.60;1.00;;;;;;2281627;61;1410;-87
2024/01/17 17:34:10;79103.00;0.26;137.49;0.00;0.00;0.62;;;;;11.60;1.00;;;;;;2280262;61;1624;-88
2024/01/17 17:39:06;185871.00;0.62;321.60;0.00;0.00;0.62;;;;;11.30;1.00;;;;;;2282277;61;1943;-88
2024/01/17 17:44:03;154418.00;0.51;267.42;0.00;0.00;0.62;;;;;11.40;1.00;;;;;;2282128;61;1403;-88
2024/01/17 17:54:03;428518.00;1.43;738.84;38468.00;0.13;67.24;;;;;11.90;1.00;;;;;;2297779;56;3621;-88
2024/01/17 17:58:59;342426.00;1.14;590.84;0.00;0.00;0.62;;;;;11.60;1.00;;;;;;2291558;40;3490;-88
2024/01/17 18:01:27;113056.00;0.38;196.10;0.00;0.00;0.62;;;;;11.40;1.00;;;;;;2276856;61;1264;-90
2024/01/17 18:03:53;149830.00;0.50;259.51;0.00;0.00;0.62;;;;;11.40;1.00;;;;;;2276959;61;877;-89
2024/01/17 18:08:48;217834.00;0.73;376.62;0.00;0.00;0.62;;;;;11.50;1.00;;;;;;2273977;61;1423;-88
2024/01/17 18:18:45;313624.00;1.05;541.34;0.00;0.00;0.62;;;;;11.90;1.00;;;;;;2270700;61;1953;-88
2024/01/17 18:23:42;168981.00;0.56;292.51;0.00;0.00;0.62;;;;;11.60;1.00;;;;;;2270551;61;1345;-88
2024/01/17 18:26:09;0.00;0.00;0.62;0.00;0.00;0.62;;;;;11.50;1.00;;;;;;2268571;61;1138;-88
2024/01/17 18:28:36;34941.00;0.12;61.13;0.00;0.00;0.62;;;;;11.60;1.00;;;;;;2282179;40;3584;-88
2024/01/17 18:35:59;71063.00;0.24;123.60;0.00;0.00;0.62;;;;;11.70;1.00;;;;;;2275492;61;1337;-90
2024/01/17 18:40:56;66599.00;0.22;115.88;0.00;0.00;0.62;;;;;11.60;1.00;;;;;;1958732;56;3562;-88
2024/01/17 18:45:54;248982.00;0.83;430.20;0.00;0.00;0.62;;;;;11.70;1.00;;;;;;2271009;61;1368;-89
2024/01/17 18:50:49;98651.00;0.33;171.24;0.00;0.00;0.62;;;;;11.50;1.00;;;;;;2274739;61;1363;-87
2024/01/17 18:53:17;72652.00;0.24;126.34;0.00;0.00;0.62;;;;;11.50;1.00;;;;;;2272621;61;1578;-87
2024/01/17 18:55:48;0.00;0.00;0.62;0.00;0.00;0.62;;;;;11.40;1.00;;;;;;2272706;61;928;-88
2024/01/17 18:58:15;27842.00;0.09;48.85;0.00;0.00;0.62;;;;;11.40;1.00;;;;;;2272591;61;2000;-86
2024/01/17 19:03:12;70877.00;0.24;123.28;0.00;0.00;0.62;;;;;11.40;1.00;;;;;;2274209;61;1423;-88
2024/01/17 19:18:06;317655.00;1.06;548.27;85020.00;0.28;147.71;;;;;12.90;1.00;;;;;;2269909;61;1900;-88
2024/01/17 19:23:03;255864.00;0.85;442.04;91784.00;0.31;159.39;;;;;12.80;1.00;;;;;;2270125;61;1376;-88
2024/01/17 19:25:29;174384.00;0.58;301.82;104747.00;0.35;181.77;;;;;12.80;1.00;;;;;;2268484;61;1051;-89
2024/01/17 19:27:56;289112.00;0.96;499.20;91682.00;0.31;159.21;;;;;12.70;1.00;;;;;;2268641;61;1681;-90
2024/01/17 19:40:21;600748.00;2.00;1035.51;92491.00;0.31;160.61;;;;;13.00;1.00;;;;;;2269998;61;1355;-90
2024/01/17 19:47:45;491436.00;1.64;847.08;101370.00;0.34;175.94;;;;;13.00;1.00;;;;;;2275203;61;1313;-90
2024/01/17 19:50:12;372676.00;1.24;642.84;91540.00;0.31;158.97;;;;;13.00;1.00;;;;;;2272444;61;1758;-88
2024/01/17 19:52:39;356494.00;1.19;615.02;89836.00;0.30;156.02;;;;;12.90;1.00;;;;;;2272489;61;1040;-88
2024/01/17 19:57:37;614017.00;2.05;1058.43;99456.00;0.33;172.63;;;;;12.80;1.00;;;;;;2275178;61;1303;-89
2024/01/17 20:00:04;367805.00;1.23;634.46;94351.00;0.31;163.82;;;;;12.60;1.00;;;;;;2272635;61;1765;-89
2024/01/17 20:02:31;338921.00;1.13;584.82;90871.00;0.30;157.81;;;;;12.50;1.00;;;;;;2272617;61;2082;-88
2024/01/17 20:12:29;868034.00;2.89;1500.05;98290.00;0.33;170.62;;;;;12.70;1.00;;;;;;2270457;61;1373;-89
2024/01/17 20:14:58;645517.00;2.15;1112.88;96500.00;0.32;167.53;;;;;12.80;1.00;;;;;;2268712;61;1103;-88
2024/01/17 20:27:20;696177.00;2.32;1200.61;0.00;0.00;0.62;;;;;12.60;1.00;;;;;;2266245;61;1421;-89
2024/01/17 20:29:47;418214.00;1.39;721.12;0.00;0.00;0.62;;;;;12.80;1.00;;;;;;2264496;61;1154;-88
2024/01/17 20:32:15;446939.00;1.49;770.52;0.00;0.00;0.62;;;;;12.90;1.00;;;;;;2260255;61;1584;-89
2024/01/17 20:34:43;419973.00;1.40;724.14;0.00;0.00;0.62;;;;;12.90;1.00;;;;;;2260418;61;2440;-90
2024/01/17 20:37:10;428385.00;1.43;738.61;0.00;0.00;0.62;;;;;12.90;1.00;;;;;;2271657;56;3785;-88
2024/01/17 20:39:39;444477.00;1.48;766.28;0.00;0.00;0.62;;;;;12.90;1.00;;;;;;2276566;61;1947;-87
2024/01/17 20:42:06;1013007.00;3.38;1755.52;109808.00;0.37;190.50;;;;;12.90;1.00;;;;;;2276377;61;1522;-89
2024/01/17 20:44:35;882656.00;2.94;1525.68;90284.00;0.30;156.80;;;;;12.80;1.00;;;;;;2276653;61;979;-90
2024/01/17 20:47:02;575569.00;1.92;992.05;89861.00;0.30;156.07;;;;;12.90;1.00;;;;;;2276454;61;1600;-88